Time;durP1;ratioP1;P1;durP2;ratioP2;P2;SDS_P1;SDS_P2;PMS_P1;PMS_P2;Temp;Humidity;BMP_temperature;BMP_pressure;BME280_temperature;BME280_humidity;BME280_pressure;Samples;Min_cycle;Max_cycle;Signal;HPM_P1;HPM_P2
2022/09/29 00:01:20;;;;;;;12.13;2.58;;;16.90;99.90;;;;;;5029633;28;20032;-63
2022/09/29 00:04:42;;;;;;;22.38;3.75;;;17.00;99.90;;;;;;5033086;28;20058;-63
2022/09/29 00:07:46;;;;;;;20.10;2.45;;;17.00;99.90;;;;;;5033791;28;20408;-64
2022/09/29 00:10:50;;;;;;;11.20;1.90;;;17.10;99.90;;;;;;5033490;28;20064;-63
2022/09/29 00:13:54;;;;;;;19.25;3.58;;;17.10;99.90;;;;;;5032995;28;20044;-63
2022/09/29 00:16:58;;;;;;;22.33;3.38;;;17.10;99.90;;;;;;5033271;28;20044;-63
2022/09/29 00:20:02;;;;;;;19.60;3.05;;;17.00;99.90;;;;;;5033024;28;20036;-63
2022/09/29 00:23:06;;;;;;;19.60;2.50;;;17.00;99.90;;;;;;5033194;28;20048;-63
2022/09/29 00:26:12;;;;;;;17.45;2.45;;;17.10;99.90;;;;;;5033080;28;20045;-63
2022/09/29 00:29:16;;;;;;;24.30;3.13;;;17.20;99.90;;;;;;5033373;28;20062;-63
2022/09/29 00:32:39;;;;;;;17.20;2.60;;;17.30;99.90;;;;;;5033099;28;20045;-63
2022/09/29 00:35:42;;;;;;;18.27;2.72;;;17.30;99.90;;;;;;5032985;28;20044;-63
2022/09/29 00:38:48;;;;;;;18.98;2.80;;;17.40;99.90;;;;;;5033077;28;20040;-63
2022/09/29 00:41:52;;;;;;;21.35;3.83;;;17.40;99.90;;;;;;5033271;28;20040;-64
2022/09/29 00:45:05;;;;;;;14.57;2.33;;;17.40;99.90;;;;;;5032521;28;20056;-64
2022/09/29 00:48:16;;;;;;;15.45;2.33;;;17.50;99.90;;;;;;5032934;28;20392;-63
2022/09/29 00:54:53;;;;;;;14.52;2.40;;;17.50;99.90;;;;;;5032644;28;20056;-63
2022/09/29 01:01:31;;;;;;;16.02;2.60;;;17.60;99.90;;;;;;5032522;28;20057;-64
2022/09/29 01:04:54;;;;;;;24.52;2.70;;;17.50;99.90;;;;;;5032040;28;20072;-63
2022/09/29 01:08:07;;;;;;;21.60;3.70;;;17.40;99.90;;;;;;5032698;28;20056;-64
2022/09/29 01:11:12;;;;;;;20.90;2.95;;;17.30;99.90;;;;;;5032668;28;20064;-64
2022/09/29 01:14:35;;;;;;;18.73;2.53;;;17.20;99.90;;;;;;5031054;28;20412;-64
2022/09/29 01:17:40;;;;;;;19.75;3.25;;;17.10;99.90;;;;;;5032276;28;20041;-64
2022/09/29 01:21:22;;;;;;;16.35;2.08;;;17.00;99.90;;;;;;5032302;28;20040;-64
2022/09/29 01:25:20;;;;;;;16.70;2.08;;;17.00;99.90;;;;;;5031614;28;20045;-64
2022/09/29 01:28:59;;;;;;;12.82;2.17;;;17.10;99.90;;;;;;5011061;28;20053;-63
2022/09/29 01:32:22;;;;;;;16.67;2.65;;;17.10;99.90;;;;;;5031956;28;20049;-64
2022/09/29 01:35:28;;;;;;;16.33;2.42;;;17.20;99.90;;;;;;5031719;28;20040;-63
2022/09/29 01:39:04;;;;;;;18.27;3.38;;;17.10;99.90;;;;;;5030880;28;20041;-64
2022/09/29 01:42:31;;;;;;;18.90;2.25;;;17.10;99.90;;;;;;5031693;28;20064;-64
2022/09/29 01:45:41;;;;;;;13.68;2.70;;;17.10;99.90;;;;;;5031585;28;20398;-63
2022/09/29 01:48:50;;;;;;;13.30;2.05;;;17.20;99.90;;;;;;5031635;28;20048;-64
2022/09/29 01:52:12;;;;;;;11.65;2.15;;;17.20;99.90;;;;;;5031470;28;20048;-63
2022/09/29 01:55:23;;;;;;;15.20;2.17;;;17.20;99.90;;;;;;5031136;28;20056;-64
2022/09/29 01:58:33;;;;;;;11.27;2.20;;;17.20;99.90;;;;;;5031565;28;20508;-64
2022/09/29 02:01:42;;;;;;;19.52;2.65;;;17.20;99.90;;;;;;5031748;28;20061;-63
2022/09/29 02:04:53;;;;;;;11.85;2.25;;;17.10;99.90;;;;;;5031256;28;20060;-64
2022/09/29 02:08:01;;;;;;;17.05;2.75;;;17.10;99.90;;;;;;5031390;28;20064;-63
2022/09/29 02:11:08;;;;;;;18.25;2.20;;;17.30;99.90;;;;;;5031355;28;20056;-63
2022/09/29 02:14:22;;;;;;;15.35;2.53;;;17.50;99.90;;;;;;5030797;28;20044;-63
2022/09/29 02:17:49;;;;;;;14.20;2.03;;;17.60;99.90;;;;;;5030980;28;20044;-63
2022/09/29 02:20:53;;;;;;;14.05;1.77;;;17.60;99.90;;;;;;5030864;28;20040;-64
2022/09/29 02:23:57;;;;;;;18.35;2.83;;;17.60;99.90;;;;;;5030810;28;20054;-63
2022/09/29 02:27:02;;;;;;;13.05;2.28;;;17.50;99.90;;;;;;5031014;28;20531;-63
2022/09/29 02:30:07;;;;;;;18.98;3.00;;;17.50;99.90;;;;;;5031017;28;20436;-64
2022/09/29 02:33:24;;;;;;;17.13;2.25;;;17.60;99.90;;;;;;5030769;28;20064;-64
2022/09/29 02:36:43;;;;;;;14.07;2.58;;;17.50;99.90;;;;;;5030885;28;20048;-63
2022/09/29 02:40:04;;;;;;;28.23;2.80;;;17.50;99.90;;;;;;5031071;28;20040;-63
2022/09/29 02:43:35;;;;;;;12.60;2.00;;;17.30;99.90;;;;;;5030340;28;20523;-63
2022/09/29 02:47:24;;;;;;;13.27;3.00;;;17.40;99.90;;;;;;5030882;28;20064;-64
2022/09/29 02:50:47;;;;;;;12.00;2.33;;;17.20;99.90;;;;;;5030953;28;20068;-63
2022/09/29 02:54:32;;;;;;;21.02;3.30;;;17.20;99.90;;;;;;5030064;28;20052;-64
2022/09/29 02:58:32;;;;;;;20.00;2.90;;;17.30;99.90;;;;;;5028430;28;20331;-64
2022/09/29 03:05:13;;;;;;;12.10;2.00;;;17.10;99.90;;;;;;5029991;28;20040;-62
2022/09/29 03:08:17;;;;;;;11.00;1.90;;;17.30;99.90;;;;;;5030292;28;20044;-63
2022/09/29 03:11:21;;;;;;;12.57;2.15;;;17.30;99.90;;;;;;5030111;28;20389;-64
2022/09/29 03:14:25;;;;;;;11.25;2.40;;;17.30;99.90;;;;;;5029779;28;20052;-63
2022/09/29 03:17:30;;;;;;;18.73;2.53;;;17.30;99.90;;;;;;5030231;28;20048;-64
2022/09/29 03:20:33;;;;;;;11.57;1.85;;;17.20;99.90;;;;;;5030247;28;20045;-63
2022/09/29 03:23:57;;;;;;;19.38;2.75;;;17.10;99.90;;;;;;5029956;28;20048;-64
2022/09/29 03:27:01;;;;;;;14.52;2.15;;;17.10;99.90;;;;;;5029748;28;20060;-63
2022/09/29 03:30:05;;;;;;;10.68;1.90;;;17.00;99.90;;;;;;5030195;28;20052;-63
2022/09/29 03:33:11;;;;;;;22.92;2.65;;;16.90;99.90;;;;;;5029830;28;20048;-63
2022/09/29 03:36:33;;;;;;;17.58;2.72;;;16.90;99.90;;;;;;5030368;28;20056;-63
2022/09/29 03:39:37;;;;;;;19.83;2.55;;;16.70;99.90;;;;;;5030212;28;20039;-63
2022/09/29 03:42:44;;;;;;;13.48;2.15;;;15.20;99.90;;;;;;5029908;28;20052;-63
2022/09/29 03:45:50;;;;;;;13.35;2.80;;;16.50;99.90;;;;;;5030292;28;20392;-63
2022/09/29 03:48:54;;;;;;;14.18;2.70;;;16.50;99.90;;;;;;5030150;28;20488;-63
2022/09/29 03:52:35;;;;;;;11.93;2.17;;;16.60;99.90;;;;;;5029674;28;20052;-63
2022/09/29 03:55:40;;;;;;;14.35;2.47;;;16.70;99.90;;;;;;5029508;28;20060;-63
2022/09/29 03:59:04;;;;;;;9.57;2.03;;;16.80;99.90;;;;;;5029755;28;20400;-63
2022/09/29 04:02:07;;;;;;;16.45;2.10;;;16.70;99.90;;;;;;5029730;28;20056;-64
2022/09/29 04:05:12;;;;;;;16.77;2.17;;;16.60;99.90;;;;;;5029367;28;20044;-63
2022/09/29 04:08:16;;;;;;;15.63;1.95;;;16.70;99.90;;;;;;5030019;28;20392;-63
2022/09/29 04:11:20;;;;;;;18.50;3.20;;;16.60;99.90;;;;;;5029527;28;20062;-63
2022/09/29 04:14:24;;;;;;;20.63;2.22;;;16.60;99.90;;;;;;5028986;28;20072;-63
2022/09/29 04:17:28;;;;;;;13.63;2.63;;;16.60;99.90;;;;;;5029549;28;20388;-63
2022/09/29 04:20:32;;;;;;;10.70;3.03;;;16.60;99.90;;;;;;5029715;28;20052;-64
2022/09/29 04:23:37;;;;;;;14.23;2.00;;;16.40;99.90;;;;;;5028880;28;20060;-62
2022/09/29 04:26:41;;;;;;;10.25;2.33;;;16.30;99.90;;;;;;5029488;28;20052;-63
2022/09/29 04:29:45;;;;;;;15.65;2.15;;;16.30;99.90;;;;;;5029738;28;20068;-64
2022/09/29 04:32:49;;;;;;;14.93;2.47;;;16.20;99.90;;;;;;5026478;28;20392;-63
2022/09/29 04:35:53;;;;;;;8.63;1.55;;;16.40;99.90;;;;;;5030558;28;20056;-63
2022/09/29 04:38:58;;;;;;;11.18;2.63;;;16.40;99.90;;;;;;5030247;28;20064;-63
2022/09/29 04:42:02;;;;;;;12.90;2.25;;;16.40;99.90;;;;;;5030053;28;20044;-63
2022/09/29 04:45:06;;;;;;;7.90;1.70;;;16.40;99.90;;;;;;5029770;28;20040;-64
2022/09/29 04:48:10;;;;;;;18.92;2.20;;;16.30;99.90;;;;;;5029886;28;20052;-64
2022/09/29 04:51:14;;;;;;;12.82;2.30;;;16.30;99.90;;;;;;5033703;28;20044;-63
2022/09/29 04:57:42;;;;;;;10.55;1.90;;;16.40;99.90;;;;;;5033476;28;20044;-63
2022/09/29 05:00:46;;;;;;;7.28;1.67;;;16.50;99.90;;;;;;5033019;28;20036;-63
2022/09/29 05:03:50;;;;;;;10.93;2.10;;;16.50;99.90;;;;;;5032828;28;20396;-63
2022/09/29 05:06:54;;;;;;;14.65;2.13;;;16.50;99.90;;;;;;5032914;28;20088;-64
2022/09/29 05:09:58;;;;;;;15.90;1.67;;;16.50;99.90;;;;;;5033280;28;20045;-63
2022/09/29 05:13:02;;;;;;;9.65;1.80;;;16.50;99.90;;;;;;5033130;28;20092;-63
2022/09/29 05:16:25;;;;;;;14.18;2.45;;;16.40;99.90;;;;;;5033253;28;20384;-64
2022/09/29 05:19:31;;;;;;;15.73;2.13;;;16.30;99.90;;;;;;5033313;28;20057;-64
2022/09/29 05:22:35;;;;;;;9.98;2.30;;;16.20;99.90;;;;;;5033007;28;20494;-63
2022/09/29 05:26:05;;;;;;;17.58;2.33;;;16.30;99.90;;;;;;5033067;28;20044;-63
2022/09/29 05:29:09;;;;;;;11.82;2.45;;;16.20;99.90;;;;;;5032863;28;20037;-63
2022/09/29 05:32:33;;;;;;;13.90;2.03;;;16.30;99.90;;;;;;5032927;28;20060;-64
2022/09/29 05:35:37;;;;;;;16.45;2.25;;;16.30;99.90;;;;;;5032624;28;20400;-64
2022/09/29 05:38:41;;;;;;;14.63;2.13;;;16.30;99.90;;;;;;5032964;28;20044;-64
2022/09/29 05:41:46;;;;;;;12.10;1.60;;;16.20;99.90;;;;;;5032994;28;20052;-63
2022/09/29 05:44:51;;;;;;;15.48;1.65;;;16.30;99.90;;;;;;5032149;28;20088;-64
2022/09/29 05:48:13;;;;;;;9.32;1.52;;;16.40;99.90;;;;;;5032692;28;20396;-64
2022/09/29 05:51:19;;;;;;;12.63;1.95;;;16.60;99.90;;;;;;5032643;28;20059;-63
2022/09/29 05:54:42;;;;;;;14.95;1.90;;;16.80;99.90;;;;;;5031476;28;20048;-63
2022/09/29 05:57:48;;;;;;;21.23;2.60;;;16.90;99.90;;;;;;5033176;28;20483;-64
2022/09/29 06:00:52;;;;;;;17.35;2.90;;;17.10;99.90;;;;;;5032331;28;20047;-64
2022/09/29 06:03:57;;;;;;;9.25;1.58;;;17.20;99.90;;;;;;5031385;28;20376;-64
2022/09/29 06:07:19;;;;;;;11.90;2.20;;;17.30;99.90;;;;;;5026843;28;20056;-64
2022/09/29 06:10:23;;;;;;;13.32;1.90;;;17.40;99.90;;;;;;5029546;28;20503;-64
2022/09/29 06:13:48;;;;;;;13.80;2.67;;;17.40;99.90;;;;;;5027546;28;20056;-63
2022/09/29 06:16:52;;;;;;;15.52;2.00;;;17.40;99.90;;;;;;5025449;28;20052;-63
2022/09/29 06:19:57;;;;;;;10.45;2.30;;;17.60;99.90;;;;;;5030731;28;20044;-64
2022/09/29 06:23:01;;;;;;;9.98;1.58;;;17.70;99.90;;;;;;5028857;28;20040;-64
2022/09/29 06:26:11;;;;;;;17.20;2.30;;;18.00;99.90;;;;;;5022716;28;20057;-63
2022/09/29 06:29:15;;;;;;;18.27;2.33;;;18.10;99.90;;;;;;5031018;28;20045;-64
2022/09/29 06:32:39;;;;;;;13.38;2.10;;;18.30;99.90;;;;;;5029835;28;20048;-64
2022/09/29 06:39:12;;;;;;;13.32;1.75;;;18.30;99.90;;;;;;5029413;28;20140;-64
2022/09/29 06:42:17;;;;;;;14.00;2.20;;;18.60;99.90;;;;;;5030276;28;20044;-64
2022/09/29 06:45:21;;;;;;;15.70;2.35;;;19.00;99.90;;;;;;5028497;28;20052;-64
2022/09/29 06:48:28;;;;;;;11.05;1.85;;;19.50;99.90;;;;;;5030164;28;20396;-64
2022/09/29 06:51:34;;;;;;;9.48;1.60;;;19.80;99.90;;;;;;5011107;28;20049;-64
2022/09/29 06:54:38;;;;;;;21.20;4.03;;;19.70;99.90;;;;;;5017014;28;20048;-64
2022/09/29 06:57:44;;;;;;;12.63;2.17;;;19.60;99.90;;;;;;5030375;28;20045;-63
2022/09/29 07:01:08;;;;;;;13.60;2.45;;;19.70;99.90;;;;;;5027119;28;20511;-64
2022/09/29 07:04:12;;;;;;;18.45;2.95;;;19.80;99.90;;;;;;5029526;28;20052;-64
2022/09/29 07:07:16;;;;;;;12.52;2.33;;;19.80;99.90;;;;;;5020208;28;20048;-64
2022/09/29 07:10:20;;;;;;;11.98;1.88;;;20.00;99.90;;;;;;5027355;28;20044;-63
2022/09/29 07:13:43;;;;;;;11.18;2.08;;;20.20;99.90;;;;;;5027567;28;20061;-63
2022/09/29 07:16:47;;;;;;;10.60;2.10;;;20.20;99.90;;;;;;5030865;28;20522;-64
2022/09/29 07:19:54;;;;;;;13.77;2.28;;;20.70;99.90;;;;;;5028559;28;20290;-64
2022/09/29 07:22:59;;;;;;;16.02;2.33;;;22.90;99.90;;;;;;5029319;28;20045;-64
2022/09/29 07:29:51;;;;;;;10.05;2.10;;;24.90;99.90;;;;;;5028714;28;20048;-64
2022/09/29 07:36:37;;;;;;;;;;;23.10;99.90;;;;;;5012950;28;20686;-64
2022/09/29 07:40:23;;;;;;;10.98;2.10;;;21.60;99.90;;;;;;5028694;28;19913;-64
2022/09/29 07:43:28;;;;;;;13.98;2.72;;;21.60;99.90;;;;;;5017636;28;20052;-65
2022/09/29 07:47:10;;;;;;;21.50;3.78;;;21.70;99.90;;;;;;5049546;28;20415;-65
2022/09/29 07:53:37;;;;;;;15.77;1.95;;;21.60;99.90;;;;;;5028837;28;20124;-64
2022/09/29 07:56:41;;;;;;;12.63;2.55;;;22.90;99.90;;;;;;5028924;28;20511;-64
2022/09/29 07:59:46;;;;;;;10.57;1.65;;;23.10;99.90;;;;;;5023141;28;20045;-64
2022/09/29 08:03:09;;;;;;;13.05;1.75;;;23.30;99.90;;;;;;5024920;28;20515;-64
2022/09/29 08:06:13;;;;;;;16.15;2.47;;;24.80;99.90;;;;;;5029009;28;20057;-65
2022/09/29 08:09:17;;;;;;;11.13;2.00;;;24.90;99.90;;;;;;5026429;28;20334;-64
2022/09/29 08:12:21;;;;;;;16.00;2.58;;;24.80;99.90;;;;;;5029454;28;20052;-64
2022/09/29 08:15:25;;;;;;;8.18;1.88;;;24.10;99.90;;;;;;5026417;28;20049;-64
2022/09/29 08:18:30;;;;;;;9.63;2.50;;;26.60;99.90;;;;;;5029220;28;20040;-65
2022/09/29 08:24:58;;;;;;;11.00;2.42;;;27.00;99.90;;;;;;5028738;28;20036;-64
2022/09/29 08:31:45;;;;;;;12.07;2.60;;;24.90;99.90;;;;;;5028944;28;20048;-64
2022/09/29 08:34:49;;;;;;;10.65;2.25;;;24.50;99.90;;;;;;5027171;28;20049;-65
2022/09/29 08:37:54;;;;;;;12.52;3.05;;;24.40;99.90;;;;;;5022242;28;20036;-65
2022/09/29 08:41:20;;;;;;;14.50;2.92;;;24.20;99.90;;;;;;5031730;28;20044;-65
2022/09/29 08:44:31;;;;;;;14.80;3.20;;;25.40;99.90;;;;;;5026727;28;20040;-64
2022/09/29 08:47:40;;;;;;;11.88;2.40;;;25.00;99.90;;;;;;5030619;28;20048;-64
2022/09/29 08:50:58;;;;;;;11.27;2.40;;;23.00;99.90;;;;;;5031156;28;20113;-64
2022/09/29 08:54:30;;;;;;;8.65;2.05;;;22.90;99.90;;;;;;5031858;28;20053;-63
2022/09/29 08:57:35;;;;;;;10.82;2.63;;;26.30;99.90;;;;;;5032728;28;20040;-64
2022/09/29 09:01:00;;;;;;;12.05;2.10;;;28.50;99.90;;;;;;5028962;28;20495;-65
2022/09/29 09:04:35;;;;;;;16.45;3.08;;;28.60;99.90;;;;;;5031671;28;20037;-65
2022/09/29 09:07:53;;;;;;;9.10;1.40;;;29.60;99.90;;;;;;5033214;28;20057;-64
2022/09/29 09:11:13;;;;;;;9.75;1.83;;;27.40;99.90;;;;;;5025167;28;20037;-64
2022/09/29 09:14:44;;;;;;;16.92;2.28;;;27.60;99.90;;;;;;5042163;28;20044;-63
2022/09/29 09:18:07;;;;;;;10.63;2.27;;;26.50;99.90;;;;;;5025898;28;20044;-63
2022/09/29 09:21:30;;;;;;;7.03;1.65;;;25.40;99.90;;;;;;5044137;28;20052;-64
2022/09/29 09:24:45;;;;;;;15.27;2.30;;;24.50;99.90;;;;;;5026212;28;20499;-64
2022/09/29 09:28:18;;;;;;;7.05;1.58;;;24.70;99.90;;;;;;5031737;28;20242;-64
2022/09/29 09:31:29;;;;;;;7.07;1.60;;;26.90;99.90;;;;;;5026352;28;20492;-64
2022/09/29 09:38:01;;;;;;;9.80;1.85;;;31.80;99.40;;;;;;5026946;28;19913;-64
2022/09/29 09:41:08;;;;;;;9.35;2.00;;;32.90;96.40;;;;;;5024615;28;20044;-64
2022/09/29 09:44:32;;;;;;;9.82;1.75;;;29.70;98.90;;;;;;5031065;28;20056;-64
2022/09/29 09:48:07;;;;;;;10.77;2.08;;;27.60;99.90;;;;;;5027631;28;20052;-64
2022/09/29 09:51:40;;;;;;;12.45;2.03;;;26.80;99.90;;;;;;5027658;28;20048;-63
2022/09/29 09:55:05;;;;;;;8.27;2.17;;;26.60;99.90;;;;;;5024569;28;20044;-64
2022/09/29 09:58:27;;;;;;;7.72;1.85;;;25.80;99.90;;;;;;5029863;28;20388;-63
2022/09/29 10:05:13;;;;;;;10.60;1.95;;;25.80;99.90;;;;;;5027792;28;20037;-63
2022/09/29 10:11:57;;;;;;;11.27;1.42;;;26.80;99.90;;;;;;5030087;28;20113;-64
2022/09/29 10:15:11;;;;;;;7.95;1.50;;;25.80;99.90;;;;;;5029955;28;20052;-64
2022/09/29 10:18:45;;;;;;;6.70;1.92;;;27.70;99.90;;;;;;5029910;28;20036;-64
2022/09/29 10:21:50;;;;;;;5.15;1.65;;;26.80;99.90;;;;;;5026970;28;20040;-63
2022/09/29 10:25:13;;;;;;;7.05;1.77;;;25.20;99.90;;;;;;5024086;28;20400;-63
2022/09/29 10:28:18;;;;;;;13.32;2.50;;;24.60;99.90;;;;;;5027799;28;20051;-63
2022/09/29 10:31:26;;;;;;;10.50;1.63;;;23.70;99.90;;;;;;5023414;28;20052;-64
2022/09/29 10:34:34;;;;;;;11.25;1.65;;;22.90;99.90;;;;;;5027527;28;20052;-63
2022/09/29 10:37:43;;;;;;;10.32;1.63;;;22.70;99.90;;;;;;5028390;28;20527;-63
2022/09/29 10:41:07;;;;;;;8.98;1.88;;;22.90;99.90;;;;;;5028138;28;20487;-64
2022/09/29 10:44:20;;;;;;;8.48;1.38;;;23.10;99.90;;;;;;5029143;28;20475;-64
2022/09/29 10:47:24;;;;;;;7.13;1.40;;;23.50;99.90;;;;;;5025605;28;20056;-63
2022/09/29 10:50:35;;;;;;;4.80;0.90;;;24.30;99.90;;;;;;5024464;28;20056;-64
2022/09/29 10:53:40;;;;;;;;;;;24.50;99.90;;;;;;5026354;28;20056;-63
2022/09/29 10:56:48;;;;;;;1.75;0.50;;;23.80;99.90;;;;;;5022903;28;19909;-63
2022/09/29 10:59:54;;;;;;;3.40;0.88;;;23.40;99.90;;;;;;5025279;28;20049;-64
2022/09/29 11:03:25;;;;;;;4.68;1.02;;;22.30;99.90;;;;;;5029999;28;20056;-64
2022/09/29 11:06:38;;;;;;;3.35;0.50;;;21.30;99.90;;;;;;5028531;28;20048;-64
2022/09/29 11:10:01;;;;;;;4.30;0.77;;;20.60;99.90;;;;;;5028224;28;20044;-63
2022/09/29 11:13:23;;;;;;;4.78;0.80;;;20.40;99.90;;;;;;5028299;28;20044;-64
2022/09/29 11:16:39;;;;;;;4.63;0.70;;;20.00;99.90;;;;;;5028040;28;20112;-63
2022/09/29 11:20:04;;;;;;;4.75;0.85;;;20.00;99.90;;;;;;5027337;28;20048;-63
2022/09/29 11:23:29;;;;;;;4.80;0.70;;;20.00;99.90;;;;;;5029255;28;20389;-65
2022/09/29 11:26:41;;;;;;;3.20;0.80;;;20.10;99.90;;;;;;5027446;28;20037;-64
2022/09/29 11:30:14;;;;;;;4.03;0.77;;;20.00;99.90;;;;;;5029651;28;20412;-64
2022/09/29 11:37:10;;;;;;;2.70;0.75;;;19.50;99.90;;;;;;5024532;28;20495;-64
2022/09/29 11:40:30;;;;;;;3.72;0.80;;;19.30;99.90;;;;;;5026457;28;20040;-64
2022/09/29 11:44:25;;;;;;;6.60;1.25;;;19.20;99.90;;;;;;5023218;28;20923;-64
2022/09/29 11:47:54;;;;;;;6.57;1.65;;;18.90;99.90;;;;;;5021891;28;20040;-63
2022/09/29 11:51:49;;;;;;;7.60;1.25;;;18.70;99.90;;;;;;5026475;28;20040;-63
2022/09/29 11:55:32;;;;;;;9.50;1.13;;;18.50;99.90;;;;;;5026576;28;20049;-64
2022/09/29 11:58:59;;;;;;;8.65;1.58;;;18.20;99.90;;;;;;5028644;28;20040;-64
2022/09/29 12:02:41;;;;;;;11.40;1.30;;;18.00;99.90;;;;;;5029494;28;20045;-64
2022/09/29 12:06:32;;;;;;;8.25;1.70;;;17.80;99.90;;;;;;5026435;28;20044;-63
2022/09/29 12:09:39;;;;;;;7.53;1.58;;;17.70;99.90;;;;;;5031801;28;20045;-64
2022/09/29 12:12:45;;;;;;;6.75;1.65;;;17.50;99.90;;;;;;5029258;28;20388;-63
2022/09/29 12:16:10;;;;;;;2.80;1.00;;;17.40;99.90;;;;;;5027503;28;20049;-63
2022/09/29 12:19:19;;;;;;;5.07;1.15;;;17.10;99.90;;;;;;5031890;28;20044;-62
2022/09/29 12:22:24;;;;;;;4.20;1.00;;;16.60;99.90;;;;;;5029668;28;20040;-62
2022/09/29 12:26:18;;;;;;;6.25;1.05;;;16.00;99.90;;;;;;5028816;28;20040;-62
2022/09/29 12:29:36;;;;;;;3.97;1.10;;;15.60;99.90;;;;;;5024161;28;20080;-62
2022/09/29 12:32:57;;;;;;;3.67;1.30;;;15.40;99.90;;;;;;5029836;28;20033;-62
2022/09/29 12:36:42;;;;;;;7.70;1.00;;;15.30;99.90;;;;;;5031459;28;20499;-62
2022/09/29 12:39:54;;;;;;;7.65;2.05;;;15.10;99.90;;;;;;5027968;28;20044;-62
2022/09/29 12:43:26;;;;;;;5.60;1.27;;;15.00;99.90;;;;;;5031273;28;20064;-63
2022/09/29 12:51:19;;;;;;;5.18;1.02;;;14.90;99.90;;;;;;5020951;28;20124;-63
2022/09/29 12:54:23;;;;;;;5.00;0.98;;;15.00;99.90;;;;;;5029167;28;20041;-63
2022/09/29 12:57:35;;;;;;;5.13;1.40;;;15.00;99.90;;;;;;5028281;28;20057;-62
2022/09/29 13:00:43;;;;;;;4.20;0.80;;;15.10;99.90;;;;;;5026335;28;20036;-63
2022/09/29 13:08:01;;;;;;;2.55;0.70;;;15.10;99.90;;;;;;5031063;28;20036;-63
2022/09/29 13:11:23;;;;;;;2.63;1.10;;;15.00;99.90;;;;;;5026785;28;20036;-63
2022/09/29 13:14:50;;;;;;;3.42;0.90;;;15.10;99.90;;;;;;5027868;28;20396;-64
2022/09/29 13:18:51;;;;;;;3.63;1.00;;;15.00;99.90;;;;;;5031285;28;20487;-64
2022/09/29 13:22:29;;;;;;;4.25;0.77;;;14.90;99.90;;;;;;5028087;28;20049;-63
2022/09/29 13:25:49;;;;;;;1.52;0.77;;;14.90;99.90;;;;;;5024959;28;20041;-64
2022/09/29 13:29:09;;;;;;;3.67;0.93;;;14.90;99.90;;;;;;5026412;28;20392;-63
2022/09/29 13:32:15;;;;;;;4.70;0.80;;;15.00;99.90;;;;;;5028867;28;20125;-64
2022/09/29 13:35:23;;;;;;;3.47;0.90;;;15.00;99.90;;;;;;5022728;28;20044;-64
2022/09/29 13:38:34;;;;;;;3.03;0.95;;;15.10;99.90;;;;;;5029497;28;20499;-64
2022/09/29 13:41:39;;;;;;;4.57;0.90;;;15.10;99.90;;;;;;5026629;28;20495;-63
2022/09/29 13:45:26;;;;;;;5.10;0.90;;;15.20;99.90;;;;;;5022076;28;20628;-63
2022/09/29 13:48:30;;;;;;;2.03;0.90;;;15.10;99.90;;;;;;5029039;28;20499;-64
2022/09/29 13:56:09;;;;;;;3.90;1.20;;;14.90;99.90;;;;;;5026981;28;20040;-63
2022/09/29 13:59:17;;;;;;;4.15;0.85;;;14.80;99.90;;;;;;5029810;28;20048;-63
2022/09/29 14:02:36;;;;;;;6.68;0.80;;;14.80;99.90;;;;;;5027768;28;20045;-63
2022/09/29 14:06:31;;;;;;;5.70;0.90;;;14.90;99.90;;;;;;5028436;28;20495;-63
2022/09/29 14:09:42;;;;;;;4.70;0.90;;;15.00;99.90;;;;;;5026314;28;20044;-63
2022/09/29 14:12:52;;;;;;;3.50;1.10;;;15.10;99.90;;;;;;5027375;28;20056;-63
2022/09/29 14:16:15;;;;;;;3.10;0.77;;;15.00;99.90;;;;;;5027220;28;20048;-64
2022/09/29 14:19:19;;;;;;;5.80;0.80;;;15.10;99.90;;;;;;5030206;28;20056;-64
2022/09/29 14:23:05;;;;;;;2.35;0.77;;;15.30;99.90;;;;;;5029891;28;20459;-64
2022/09/29 14:26:41;;;;;;;4.97;0.75;;;15.50;99.90;;;;;;5028016;28;20064;-64
2022/09/29 14:30:15;;;;;;;3.80;0.90;;;15.80;99.90;;;;;;5028221;28;20072;-63
2022/09/29 14:33:19;;;;;;;4.75;1.17;;;;;;;;;;5028963;28;20048;-64
2022/09/29 14:36:24;;;;;;;5.18;1.00;;;15.70;99.90;;;;;;5028453;28;20033;-63
2022/09/29 14:39:30;;;;;;;5.78;1.10;;;15.60;99.90;;;;;;5024281;28;20514;-63
2022/09/29 14:43:12;;;;;;;7.18;1.10;;;15.30;99.90;;;;;;5028620;28;20060;-63
2022/09/29 15:05:28;;;;;;;6.68;1.55;;;14.70;99.90;;;;;;5028660;28;20052;-64
2022/09/29 15:09:14;;;;;;;9.55;2.90;;;14.90;99.90;;;;;;5027231;28;20064;-64
2022/09/29 15:12:37;;;;;;;5.32;1.70;;;14.90;99.90;;;;;;5028597;28;20526;-64
2022/09/29 15:16:20;;;;;;;11.13;2.10;;;14.80;99.90;;;;;;5025306;28;20392;-64
2022/09/29 15:19:55;;;;;;;3.33;1.50;;;14.90;99.90;;;;;;5015753;28;20045;-64
2022/09/29 15:23:05;;;;;;;9.57;4.68;;;15.10;99.90;;;;;;5027624;28;20048;-64
2022/09/29 15:26:31;;;;;;;8.07;2.80;;;15.10;99.90;;;;;;5014495;28;20055;-64
2022/09/29 15:29:56;;;;;;;6.82;3.20;;;15.10;99.90;;;;;;5025803;28;20044;-64
2022/09/29 15:33:20;;;;;;;13.57;2.80;;;14.70;99.90;;;;;;5028865;28;20063;-64
2022/09/29 15:36:44;;;;;;;5.57;1.80;;;14.60;99.90;;;;;;5024198;28;20419;-64
2022/09/29 15:40:14;;;;;;;7.30;1.90;;;14.60;99.90;;;;;;5028752;28;20037;-64
2022/09/29 15:43:27;;;;;;;9.80;2.42;;;14.70;99.90;;;;;;5026438;28;20037;-64
2022/09/29 15:47:09;;;;;;;7.90;2.10;;;14.80;99.90;;;;;;5026405;28;20400;-64
2022/09/29 15:54:09;;;;;;;7.60;1.70;;;14.70;99.90;;;;;;5026580;28;20056;-63
2022/09/29 15:57:50;;;;;;;5.30;1.60;;;14.80;99.90;;;;;;5029679;28;20048;-64
2022/09/29 16:01:17;;;;;;;10.32;1.75;;;14.90;99.90;;;;;;5028926;28;20112;-65
2022/09/29 16:04:22;;;;;;;9.68;1.75;;;15.00;99.90;;;;;;5027733;28;20040;-64
2022/09/29 16:11:53;;;;;;;9.35;3.35;;;15.10;99.90;;;;;;5029195;28;20048;-64
2022/09/29 16:14:57;;;;;;;12.98;2.15;;;15.20;99.90;;;;;;5010246;28;20057;-64
2022/09/29 16:18:27;;;;;;;9.35;2.10;;;15.30;99.90;;;;;;5010852;28;20045;-64
2022/09/29 16:21:34;;;;;;;4.88;1.60;;;15.40;99.90;;;;;;5012603;28;20048;-63
2022/09/29 16:25:09;;;;;;;11.93;3.22;;;14.80;99.90;;;;;;5010452;28;20061;-64
2022/09/29 16:28:25;;;;;;;9.25;1.80;;;14.60;99.90;;;;;;5010661;28;20102;-64
2022/09/29 16:31:30;;;;;;;16.63;6.60;;;14.50;99.90;;;;;;5010882;28;20041;-64
2022/09/29 16:34:34;;;;;;;9.45;4.55;;;14.40;99.90;;;;;;5010505;28;20044;-64
2022/09/29 16:37:58;;;;;;;8.32;4.30;;;14.50;99.90;;;;;;5010253;28;20118;-65
2022/09/29 16:41:18;;;;;;;10.85;4.35;;;14.50;99.90;;;;;;5010463;28;20053;-64
2022/09/29 16:48:08;;;;;;;9.93;2.10;;;14.70;99.90;;;;;;5014598;28;20049;-64
2022/09/29 16:51:15;;;;;;;16.80;7.40;;;14.60;99.90;;;;;;5013897;28;20049;-64
2022/09/29 16:54:44;;;;;;;10.15;5.78;;;14.60;99.90;;;;;;5014364;28;20061;-64
2022/09/29 16:58:12;;;;;;;4.88;2.58;;;14.50;99.90;;;;;;5013677;28;20606;-64
2022/09/29 17:01:16;;;;;;;5.25;2.47;;;14.50;99.90;;;;;;5013738;28;20393;-64
2022/09/29 17:04:20;;;;;;;5.50;2.22;;;14.40;99.90;;;;;;5013466;28;20052;-64
2022/09/29 17:10:53;;;;;;;5.60;2.10;;;14.30;99.90;;;;;;5013624;28;20385;-64
2022/09/29 17:13:57;;;;;;;18.17;4.28;;;14.30;99.90;;;;;;5012937;28;20041;-64
2022/09/29 17:17:02;;;;;;;14.27;5.50;;;14.20;99.90;;;;;;5013636;28;20049;-64
2022/09/29 17:20:28;;;;;;;9.90;4.68;;;14.10;99.90;;;;;;5012955;28;20052;-63
2022/09/29 17:23:34;;;;;;;9.88;4.35;;;14.10;99.90;;;;;;5012823;28;20041;-64
2022/09/29 17:30:08;;;;;;;8.85;4.18;;;14.20;99.90;;;;;;5013192;28;20061;-64
2022/09/29 17:33:15;;;;;;;9.88;4.88;;;14.20;99.90;;;;;;5013632;28;20052;-64
2022/09/29 17:36:38;;;;;;;12.63;4.75;;;14.20;99.90;;;;;;5012834;28;20044;-64
2022/09/29 17:39:42;;;;;;;10.93;5.28;;;14.20;99.90;;;;;;5012871;28;20500;-64
2022/09/29 17:43:05;;;;;;;11.63;8.13;;;14.20;99.90;;;;;;5013233;28;20053;-64
2022/09/29 17:49:51;;;;;;;21.15;10.07;;;14.10;99.90;;;;;;5012437;28;20397;-64
2022/09/29 17:53:15;;;;;;;24.35;11.50;;;14.00;99.90;;;;;;5012152;28;20049;-64
2022/09/29 17:56:24;;;;;;;23.83;12.00;;;14.00;99.90;;;;;;5011508;28;20053;-64
2022/09/29 18:03:16;;;;;;;20.25;9.82;;;14.10;99.90;;;;;;5012640;28;20041;-64
2022/09/29 18:06:23;;;;;;;16.08;9.55;;;14.10;99.90;;;;;;5012694;28;20065;-65
2022/09/29 18:13:30;;;;;;;18.88;7.78;;;14.20;99.90;;;;;;5012362;28;20413;-64
2022/09/29 18:16:35;;;;;;;20.23;11.65;;;14.20;99.90;;;;;;5012499;28;20045;-64
2022/09/29 18:19:58;;;;;;;23.83;10.50;;;14.00;99.90;;;;;;5012014;28;20424;-65
2022/09/29 18:23:22;;;;;;;347.30;24.85;;;14.00;99.90;;;;;;5011976;28;20045;-64
2022/09/29 18:26:45;;;;;;;275.17;20.58;;;13.90;99.90;;;;;;5012653;28;20385;-63
2022/09/29 18:29:50;;;;;;;93.35;17.50;;;13.90;99.90;;;;;;5011914;28;20057;-63
2022/09/29 18:36:18;;;;;;;65.95;18.77;;;13.70;99.90;;;;;;5011564;28;20045;-63
2022/09/29 18:39:41;;;;;;;26.65;14.50;;;13.70;99.90;;;;;;5011810;28;20037;-63
2022/09/29 18:42:47;;;;;;;23.88;14.80;;;13.70;99.90;;;;;;5012002;28;20535;-64